Time;durP1;ratioP1;P1;durP2;ratioP2;P2;SDS_P1;SDS_P2;PMS_P1;PMS_P2;Temp;Humidity;BMP_temperature;BMP_pressure;BME280_temperature;BME280_humidity;BME280_pressure;Samples;Min_cycle;Max_cycle;Signal;HPM_P1;HPM_P2
2022/02/06 00:02:23;;;;;;;16.63;3.00;;;8.20;99.90;;;;;;5135449;27;20047;-74
2022/02/06 00:04:50;;;;;;;23.25;4.50;;;8.20;99.90;;;;;;5135161;27;20076;-74
2022/02/06 00:07:16;;;;;;;17.15;3.28;;;8.20;99.90;;;;;;5133660;27;20046;-74
2022/02/06 00:09:43;;;;;;;20.90;3.13;;;8.30;99.90;;;;;;5135376;27;20043;-74
2022/02/06 00:12:09;;;;;;;12.43;2.75;;;8.20;99.90;;;;;;5135451;27;20114;-74
2022/02/06 00:14:35;;;;;;;26.27;3.63;;;8.20;99.90;;;;;;5133945;27;20039;-74
2022/02/06 00:17:01;;;;;;;18.35;3.92;;;8.30;99.90;;;;;;5134857;27;20458;-74
2022/02/06 00:19:27;;;;;;;16.85;3.17;;;8.20;99.90;;;;;;5135225;27;20398;-74
2022/02/06 00:21:52;;;;;;;26.75;3.20;;;8.20;99.90;;;;;;5134374;27;20042;-75
2022/02/06 00:24:26;;;;;;;12.50;4.05;;;8.30;99.90;;;;;;5135280;27;20023;-74
2022/02/06 00:26:58;;;;;;;26.50;4.43;;;8.30;99.90;;;;;;5135286;27;20030;-74
2022/02/06 00:30:19;;;;;;;21.25;3.38;;;8.20;99.90;;;;;;5134151;27;20046;-74
2022/02/06 00:32:21;;;;;;;14.30;3.83;;;8.20;99.90;;;;;;5126538;27;20481;-74
2022/02/06 00:35:13;;;;;;;17.25;3.60;;;8.30;99.90;;;;;;5134734;27;20027;-73
2022/02/06 00:40:18;;;;;;;11.40;3.50;;;8.30;99.90;;;;;;5134243;27;20033;-73
2022/02/06 00:42:44;;;;;;;23.63;4.82;;;8.30;99.90;;;;;;5133627;27;20061;-74
2022/02/06 00:45:09;;;;;;;22.27;4.60;;;8.30;99.90;;;;;;5134168;27;20428;-74
2022/02/06 00:47:36;;;;;;;23.55;3.70;;;8.30;99.90;;;;;;5134614;27;20019;-74
2022/02/06 00:50:03;;;;;;;24.13;3.20;;;8.30;99.90;;;;;;5133799;27;20035;-76
2022/02/06 00:52:36;;;;;;;20.05;2.83;;;8.30;99.90;;;;;;5134452;27;20546;-73
2022/02/06 00:55:02;;;;;;;12.32;2.45;;;8.30;99.90;;;;;;5133988;27;20027;-74
2022/02/06 00:57:28;;;;;;;16.90;3.22;;;8.40;99.90;;;;;;5132988;27;20427;-75
2022/02/06 00:59:54;;;;;;;27.23;5.07;;;8.40;99.90;;;;;;5134266;27;20058;-75
2022/02/06 01:02:19;;;;;;;21.48;3.45;;;8.40;99.90;;;;;;5133996;27;20393;-75
2022/02/06 01:04:45;;;;;;;23.38;3.08;;;8.50;99.90;;;;;;5134367;27;20079;-75
2022/02/06 01:07:10;;;;;;;28.60;4.78;;;8.50;99.90;;;;;;5134014;27;20079;-75
2022/02/06 01:09:36;;;;;;;22.70;3.75;;;8.50;99.90;;;;;;5133895;27;20031;-75
2022/02/06 01:12:01;;;;;;;21.42;3.53;;;8.50;99.90;;;;;;5133389;27;20455;-75
2022/02/06 01:20:00;;;;;;;35.83;4.25;;;8.60;99.90;;;;;;5133589;27;20470;-75
2022/02/06 01:22:28;;;;;;;33.28;4.60;;;8.60;99.90;;;;;;5133255;27;20041;-75
2022/02/06 01:27:47;;;;;;;19.90;3.65;;;8.70;99.90;;;;;;5133121;27;20458;-75
2022/02/06 01:30:17;;;;;;;31.60;4.70;;;8.70;99.90;;;;;;5132896;27;20035;-75
2022/02/06 01:32:58;;;;;;;29.00;3.60;;;8.70;99.90;;;;;;5132712;27;20029;-75
2022/02/06 01:35:37;;;;;;;;;;;8.80;99.90;;;;;;5133550;27;20079;-74
2022/02/06 01:38:15;;;;;;;22.38;3.45;;;8.80;99.90;;;;;;5133976;27;19963;-75
2022/02/06 01:40:55;;;;;;;25.70;3.72;;;8.80;99.90;;;;;;5134013;27;20023;-74
2022/02/06 01:43:26;;;;;;;29.30;3.88;;;8.80;99.90;;;;;;5133635;28;20515;-75
2022/02/06 02:07:32;;;;;;;18.92;4.88;;;8.90;99.90;;;;;;5132931;28;20617;-75
2022/02/06 02:23:07;;;;;;;30.70;4.75;;;8.90;99.90;;;;;;5137699;27;19910;-74
2022/02/06 02:30:59;;;;;;;32.33;3.88;;;8.90;99.90;;;;;;5137721;27;20027;-74
2022/02/06 02:42:50;;;;;;;23.58;3.13;;;8.90;99.90;;;;;;5137254;27;20027;-73
2022/02/06 02:49:35;;;;;;;19.67;2.47;;;8.90;99.90;;;;;;5135672;27;20093;-73
2022/02/06 02:52:07;;;;;;;16.38;3.20;;;8.90;99.90;;;;;;5136245;27;20058;-73
2022/02/06 02:54:35;;;;;;;25.58;3.50;;;8.90;99.90;;;;;;5136099;27;20051;-73
2022/02/06 02:57:07;;;;;;;31.27;5.07;;;8.90;99.90;;;;;;5135888;27;20015;-73
2022/02/06 03:02:16;;;;;;;24.27;4.32;;;8.90;99.90;;;;;;5136035;27;20062;-73
2022/02/06 03:04:46;;;;;;;18.73;3.55;;;9.00;99.90;;;;;;5135755;27;20050;-74
2022/02/06 03:07:12;;;;;;;17.42;2.85;;;8.90;99.90;;;;;;5136243;27;20034;-74
2022/02/06 03:09:41;;;;;;;8.85;2.25;;;8.90;99.90;;;;;;5135596;27;20043;-73
2022/02/06 03:12:08;;;;;;;25.67;3.30;;;8.90;99.90;;;;;;5135435;27;20024;-74
2022/02/06 03:14:49;;;;;;;18.02;3.63;;;8.90;99.90;;;;;;5135778;27;20111;-73
2022/02/06 03:17:32;;;;;;;19.55;3.55;;;8.90;99.90;;;;;;5134690;27;20497;-73
2022/02/06 03:20:05;;;;;;;19.83;4.28;;;8.90;99.90;;;;;;5136132;27;20029;-73
2022/02/06 03:22:36;;;;;;;23.42;4.35;;;8.90;99.90;;;;;;5135679;27;20351;-73
2022/02/06 03:25:06;;;;;;;24.38;3.25;;;8.80;99.90;;;;;;5135386;27;20031;-73
2022/02/06 03:27:32;;;;;;;20.92;3.72;;;8.90;99.90;;;;;;5134997;27;20494;-74
2022/02/06 03:29:58;;;;;;;12.93;3.08;;;8.90;99.90;;;;;;5137475;27;20074;-74
2022/02/06 03:32:23;;;;;;;29.10;4.68;;;8.90;99.90;;;;;;5135433;27;20054;-74
2022/02/06 03:34:49;;;;;;;17.80;3.13;;;8.90;99.90;;;;;;5136517;27;20114;-74
2022/02/06 03:37:14;;;;;;;31.42;4.18;;;8.90;99.90;;;;;;5135852;27;20121;-74
2022/02/06 03:39:52;;;;;;;19.67;4.45;;;8.90;99.90;;;;;;5134811;27;20027;-74
2022/02/06 03:42:18;;;;;;;14.10;3.47;;;8.90;99.90;;;;;;5136570;27;20537;-73
2022/02/06 03:44:49;;;;;;;26.77;3.75;;;8.90;99.90;;;;;;5136353;27;20023;-73
2022/02/06 03:47:19;;;;;;;23.92;3.78;;;8.90;99.90;;;;;;5135462;27;20159;-73
2022/02/06 03:52:15;;;;;;;25.20;3.63;;;8.90;99.90;;;;;;5130227;27;20360;-73
2022/02/06 03:54:40;;;;;;;20.75;3.15;;;8.90;99.90;;;;;;5115476;28;20540;-74
2022/02/06 03:57:07;;;;;;;27.63;3.83;;;8.90;99.90;;;;;;5116345;28;20032;-74
2022/02/06 03:59:35;;;;;;;27.77;4.07;;;8.90;99.90;;;;;;5114422;28;20505;-74
2022/02/06 04:02:01;;;;;;;36.30;4.50;;;8.90;99.90;;;;;;5114480;28;20035;-74
2022/02/06 04:04:27;;;;;;;24.92;3.78;;;9.00;99.90;;;;;;5113782;28;20039;-73
2022/02/06 04:06:53;;;;;;;25.77;3.63;;;9.00;99.90;;;;;;5114090;28;20120;-74
2022/02/06 04:09:29;;;;;;;25.50;3.72;;;9.00;99.90;;;;;;5114821;28;20031;-74
2022/02/06 04:11:57;;;;;;;26.92;3.58;;;9.00;99.90;;;;;;5114891;28;20463;-74
2022/02/06 04:14:29;;;;;;;31.70;7.45;;;9.10;99.90;;;;;;5114093;28;20027;-74
2022/02/06 04:17:07;;;;;;;42.83;5.78;;;9.00;99.90;;;;;;5114592;28;20107;-74
2022/02/06 04:19:32;;;;;;;19.75;3.97;;;9.10;99.90;;;;;;5114557;28;20038;-74
2022/02/06 04:21:58;;;;;;;40.25;4.80;;;9.10;99.90;;;;;;5113857;28;20098;-75
2022/02/06 04:24:25;;;;;;;36.78;5.40;;;9.00;99.90;;;;;;5113975;28;20050;-74
2022/02/06 04:26:53;;;;;;;22.80;3.95;;;9.10;99.90;;;;;;5114355;28;20027;-73
2022/02/06 04:29:19;;;;;;;42.90;5.93;;;9.10;99.90;;;;;;5113247;28;20402;-74
2022/02/06 04:31:47;;;;;;;25.10;4.07;;;9.00;99.90;;;;;;5114098;28;20106;-74
2022/02/06 04:34:20;;;;;;;21.85;4.00;;;9.10;99.90;;;;;;5113280;28;20038;-74
2022/02/06 04:36:55;;;;;;;38.90;4.57;;;9.10;99.90;;;;;;5114304;28;20034;-74
2022/02/06 05:14:08;;;;;;;30.95;5.32;;;9.30;99.90;;;;;;5113257;28;20152;-74
2022/02/06 05:22:22;;;;;;;33.72;4.82;;;9.30;99.90;;;;;;5113485;28;20076;-75
2022/02/06 05:25:17;;;;;;;27.98;4.28;;;9.30;99.90;;;;;;5112467;28;20096;-74
2022/02/06 05:30:26;;;;;;;27.38;4.50;;;9.30;99.90;;;;;;5112565;28;20031;-74
2022/02/06 05:35:21;;;;;;;34.67;5.43;;;9.30;99.90;;;;;;5112482;28;20093;-74
2022/02/06 05:37:47;;;;;;;28.50;5.90;;;9.30;99.90;;;;;;5111976;28;20041;-75
2022/02/06 05:40:13;;;;;;;23.27;3.17;;;9.30;99.90;;;;;;5112695;28;20412;-74
2022/02/06 05:42:39;;;;;;;17.10;3.10;;;9.30;99.90;;;;;;5113227;28;20111;-74
2022/02/06 05:45:05;;;;;;;20.25;3.83;;;9.30;99.90;;;;;;5112301;28;20110;-74
2022/02/06 05:47:33;;;;;;;26.13;4.07;;;9.30;99.90;;;;;;5113295;28;20191;-74
2022/02/06 05:49:59;;;;;;;22.85;3.58;;;9.30;99.90;;;;;;5113790;28;20097;-74
2022/02/06 05:52:25;;;;;;;40.35;4.80;;;9.30;99.90;;;;;;5116695;28;20394;-74
2022/02/06 05:54:52;;;;;;;30.95;4.95;;;9.30;99.90;;;;;;5118038;28;20028;-73
2022/02/06 05:57:18;;;;;;;40.72;5.07;;;9.20;99.90;;;;;;5117843;28;20386;-73
2022/02/06 05:59:43;;;;;;;34.88;5.53;;;9.20;99.90;;;;;;5117269;28;20020;-73
2022/02/06 06:02:09;;;;;;;49.90;5.63;;;9.20;99.90;;;;;;5116631;28;20022;-74
2022/02/06 06:04:35;;;;;;;31.98;4.20;;;9.20;99.90;;;;;;5116637;28;20115;-74
2022/02/06 06:07:03;;;;;;;26.48;3.92;;;9.20;99.90;;;;;;5115945;28;20073;-74
2022/02/06 06:09:29;;;;;;;43.10;5.32;;;9.20;99.90;;;;;;5117009;28;20036;-73
2022/02/06 06:11:54;;;;;;;32.63;5.50;;;9.20;99.90;;;;;;5117442;28;20031;-73
2022/02/06 06:14:20;;;;;;;26.38;4.88;;;9.20;99.90;;;;;;5116147;28;20394;-74
2022/02/06 06:16:45;;;;;;;42.42;5.38;;;9.20;99.90;;;;;;5116929;28;20099;-74
2022/02/06 06:19:12;;;;;;;33.78;5.40;;;9.20;99.90;;;;;;5117029;28;20068;-75
2022/02/06 06:21:44;;;;;;;41.92;5.80;;;9.20;99.90;;;;;;5116417;28;20381;-73
2022/02/06 06:24:15;;;;;;;27.25;4.22;;;9.20;99.90;;;;;;5115670;28;20555;-74
2022/02/06 06:26:40;;;;;;;36.22;4.85;;;9.30;99.90;;;;;;5115598;28;20028;-74
2022/02/06 06:29:06;;;;;;;31.38;5.40;;;9.20;99.90;;;;;;5116550;28;20036;-74
2022/02/06 06:31:32;;;;;;;30.98;4.43;;;9.30;99.90;;;;;;5116830;27;20031;-72
2022/02/06 06:33:57;;;;;;;21.45;4.78;;;9.30;99.90;;;;;;5115857;28;20030;-73
2022/02/06 06:36:23;;;;;;;21.15;4.05;;;9.30;99.90;;;;;;5116195;28;20023;-74
2022/02/06 06:38:50;;;;;;;48.58;6.38;;;9.30;99.90;;;;;;5116311;28;20055;-75
2022/02/06 06:41:16;;;;;;;28.70;3.72;;;9.30;99.90;;;;;;5115851;28;20032;-75
2022/02/06 06:43:42;;;;;;;35.22;3.75;;;9.30;99.90;;;;;;5116362;28;20020;-75
2022/02/06 06:46:07;;;;;;;34.95;4.38;;;9.30;99.90;;;;;;5116447;28;20028;-75
2022/02/06 06:48:33;;;;;;;29.20;3.58;;;9.30;99.90;;;;;;5115688;28;20521;-74
2022/02/06 06:50:59;;;;;;;27.75;3.78;;;9.30;99.90;;;;;;5118367;27;20080;-75
2022/02/06 06:53:24;;;;;;;38.92;6.38;;;9.30;99.90;;;;;;5116779;27;20031;-75
2022/02/06 06:55:57;;;;;;;38.30;5.47;;;9.40;99.90;;;;;;5114426;27;20051;-75
2022/02/06 06:58:38;;;;;;;30.40;4.03;;;9.30;99.90;;;;;;5119740;27;20481;-75
2022/02/06 07:03:31;;;;;;;26.63;4.68;;;9.40;99.90;;;;;;5134026;27;20039;-75
2022/02/06 07:05:56;;;;;;;32.53;3.38;;;9.40;99.90;;;;;;5121279;27;20059;-74
2022/02/06 07:08:22;;;;;;;36.67;4.38;;;9.80;99.90;;;;;;5114582;28;20043;-74
2022/02/06 07:10:48;;;;;;;29.40;4.85;;;9.40;99.90;;;;;;5117014;27;20019;-74
2022/02/06 07:13:14;;;;;;;36.22;5.97;;;9.40;99.90;;;;;;5114235;28;20095;-75
2022/02/06 07:15:40;;;;;;;28.80;4.65;;;9.40;99.90;;;;;;5114680;27;20104;-74
2022/02/06 07:18:06;;;;;;;41.78;5.35;;;9.40;99.90;;;;;;5113319;28;20401;-74
2022/02/06 07:20:33;;;;;;;33.90;4.93;;;9.30;99.90;;;;;;5116877;27;20079;-74
2022/02/06 07:22:59;;;;;;;41.58;6.78;;;9.40;99.90;;;;;;5113503;27;20023;-74
2022/02/06 07:25:26;;;;;;;33.85;4.90;;;9.40;99.90;;;;;;5116052;27;20039;-74
2022/02/06 07:27:53;;;;;;;35.85;4.78;;;9.40;99.90;;;;;;5114115;27;20100;-74
2022/02/06 07:30:19;;;;;;;25.45;3.78;;;9.40;99.90;;;;;;5113266;28;20043;-74
2022/02/06 07:32:44;;;;;;;39.60;4.47;;;9.40;99.90;;;;;;5116780;27;20020;-74
2022/02/06 07:35:11;;;;;;;37.72;5.45;;;9.40;99.90;;;;;;5113825;27;20051;-74
2022/02/06 07:37:58;;;;;;;34.45;5.68;;;9.30;99.90;;;;;;5116383;27;20076;-74
2022/02/06 07:40:24;;;;;;;36.53;4.25;;;9.30;99.90;;;;;;5113751;27;20493;-73
2022/02/06 07:42:50;;;;;;;32.15;5.88;;;9.40;99.90;;;;;;5115113;28;20027;-74
2022/02/06 07:45:16;;;;;;;32.67;5.90;;;9.30;99.90;;;;;;5112715;28;20542;-73
2022/02/06 07:47:44;;;;;;;20.95;4.05;;;9.30;99.90;;;;;;5114153;28;20071;-73
2022/02/06 07:50:12;;;;;;;31.90;4.25;;;9.30;99.90;;;;;;5114333;28;20112;-73
2022/02/06 07:52:38;;;;;;;38.95;6.30;;;9.40;99.90;;;;;;5113682;28;20023;-74
2022/02/06 07:55:06;;;;;;;18.33;4.95;;;9.30;99.90;;;;;;5115212;28;20467;-74
2022/02/06 07:57:32;;;;;;;23.55;4.22;;;9.30;99.90;;;;;;5114923;28;20089;-74
2022/02/06 07:59:58;;;;;;;36.05;5.18;;;9.30;99.90;;;;;;5114250;28;20032;-74
2022/02/06 08:02:24;;;;;;;27.27;3.85;;;9.30;99.90;;;;;;5114612;28;20031;-74
2022/02/06 08:04:50;;;;;;;20.27;4.35;;;9.30;99.90;;;;;;5115390;28;20054;-75
2022/02/06 08:07:16;;;;;;;30.00;4.28;;;9.30;99.90;;;;;;5114122;28;20386;-75
2022/02/06 08:09:54;;;;;;;28.83;3.65;;;9.30;99.90;;;;;;5114775;28;20031;-76
2022/02/06 08:12:29;;;;;;;13.07;2.70;;;9.30;99.90;;;;;;5113168;28;20095;-74
2022/02/06 08:14:56;;;;;;;25.25;3.50;;;9.20;99.90;;;;;;5114150;28;20035;-75
2022/02/06 08:17:29;;;;;;;18.08;4.40;;;9.20;99.90;;;;;;5114625;28;20023;-74
2022/02/06 08:19:56;;;;;;;18.08;4.75;;;9.30;99.90;;;;;;5113660;28;20016;-76
2022/02/06 08:22:23;;;;;;;23.73;4.80;;;9.30;99.90;;;;;;5114139;28;20054;-76
2022/02/06 08:24:50;;;;;;;30.98;4.60;;;9.30;99.90;;;;;;5114367;28;20089;-76
2022/02/06 08:27:16;;;;;;;20.05;4.25;;;9.20;99.90;;;;;;5113178;28;20482;-76
2022/02/06 08:29:45;;;;;;;26.98;3.75;;;9.20;99.90;;;;;;5114387;28;20092;-74
2022/02/06 08:32:12;;;;;;;15.82;3.63;;;9.20;99.90;;;;;;5113193;28;20115;-74
2022/02/06 08:34:38;;;;;;;21.80;4.10;;;9.20;99.90;;;;;;5114561;28;20050;-74
2022/02/06 08:37:04;;;;;;;18.27;3.53;;;9.30;99.90;;;;;;5114425;28;20534;-73
2022/02/06 08:39:31;;;;;;;24.90;3.50;;;9.20;99.90;;;;;;5113604;28;20115;-76
2022/02/06 08:41:57;;;;;;;26.25;4.70;;;9.20;99.90;;;;;;5113217;28;20023;-76
2022/02/06 08:44:23;;;;;;;15.40;2.72;;;9.30;99.90;;;;;;5113568;28;20526;-76
2022/02/06 08:46:49;;;;;;;11.57;3.13;;;9.30;99.90;;;;;;5124753;27;20054;-76
2022/02/06 08:49:15;;;;;;;23.10;3.35;;;9.20;99.90;;;;;;5127106;27;20063;-75
2022/02/06 08:51:41;;;;;;;29.25;3.33;;;9.20;99.90;;;;;;5127090;27;20080;-74
2022/02/06 08:54:07;;;;;;;11.35;2.78;;;9.20;99.90;;;;;;5133077;27;20451;-72
2022/02/06 08:56:38;;;;;;;16.55;3.10;;;9.30;99.90;;;;;;5123886;27;20032;-72
2022/02/06 08:59:04;;;;;;;17.77;2.45;;;9.30;99.90;;;;;;5111930;28;20473;-73
2022/02/06 09:01:29;;;;;;;19.20;2.72;;;9.30;99.90;;;;;;5110443;28;20035;-73
2022/02/06 09:03:59;;;;;;;15.90;2.65;;;9.30;99.90;;;;;;5112172;28;20054;-71
2022/02/06 09:06:25;;;;;;;25.55;4.05;;;9.30;99.90;;;;;;5111908;27;20031;-73
2022/02/06 09:08:55;;;;;;;15.60;3.67;;;9.30;99.90;;;;;;5112688;27;20039;-71
2022/02/06 09:11:22;;;;;;;17.02;2.88;;;9.30;99.90;;;;;;5112857;28;20228;-71
2022/02/06 09:13:48;;;;;;;22.85;3.58;;;9.30;99.90;;;;;;5123099;27;20475;-71
2022/02/06 09:16:13;;;;;;;18.52;3.38;;;9.30;99.90;;;;;;5118162;27;20148;-72
2022/02/06 09:18:39;;;;;;;11.60;2.63;;;9.40;99.90;;;;;;5122741;27;20024;-72
2022/02/06 09:21:04;;;;;;;11.25;3.65;;;9.30;99.90;;;;;;5097503;28;20127;-72
2022/02/06 09:23:30;;;;;;;8.75;2.50;;;9.30;99.90;;;;;;5113826;27;20102;-72
2022/02/06 09:25:56;;;;;;;13.18;2.45;;;9.40;99.90;;;;;;5116945;27;20024;-72
2022/02/06 09:28:21;;;;;;;10.65;2.42;;;9.30;99.90;;;;;;5118725;27;20096;-72
2022/02/06 09:30:47;;;;;;;10.05;2.88;;;9.40;99.90;;;;;;5113382;27;20070;-72
2022/02/06 09:35:38;;;;;;;9.80;2.63;;;9.30;99.90;;;;;;5112720;28;20020;-73
2022/02/06 09:38:07;;;;;;;14.80;3.55;;;9.30;99.90;;;;;;5112496;28;20023;-72
2022/02/06 09:40:37;;;;;;;11.98;2.05;;;9.30;99.90;;;;;;5113027;28;20479;-72
2022/02/06 09:43:05;;;;;;;10.65;2.42;;;9.30;99.90;;;;;;5119841;27;20030;-72
2022/02/06 09:45:33;;;;;;;14.68;2.42;;;9.30;99.90;;;;;;5111601;28;20023;-73
2022/02/06 09:48:00;;;;;;;9.95;1.92;;;9.30;99.90;;;;;;5111421;28;20035;-72
2022/02/06 09:50:25;;;;;;;13.63;2.88;;;9.30;99.90;;;;;;5110392;28;20043;-73
2022/02/06 09:52:53;;;;;;;11.07;1.98;;;9.30;99.90;;;;;;5111198;28;20120;-72
2022/02/06 09:55:20;;;;;;;12.00;2.88;;;9.30;99.90;;;;;;5111450;28;20502;-72
2022/02/06 10:00:17;;;;;;;;;;;9.30;99.90;;;;;;5112038;28;20689;-71
2022/02/06 10:02:47;;;;;;;11.15;3.38;;;9.40;99.90;;;;;;5111792;28;19923;-72
2022/02/06 10:05:17;;;;;;;18.92;2.13;;;9.40;99.90;;;;;;5111099;28;20088;-72
2022/02/06 10:07:48;;;;;;;13.02;2.55;;;9.40;99.90;;;;;;5111684;28;20031;-72
2022/02/06 10:10:14;;;;;;;7.47;2.75;;;9.40;99.90;;;;;;5111227;28;20032;-72
2022/02/06 10:12:45;;;;;;;14.65;2.75;;;9.50;99.90;;;;;;5111664;28;20444;-72
2022/02/06 10:15:16;;;;;;;16.10;2.58;;;9.50;99.90;;;;;;5111152;28;20114;-72
2022/02/06 10:17:42;;;;;;;14.10;3.58;;;9.50;99.90;;;;;;5111121;28;20024;-72
2022/02/06 10:20:19;;;;;;;14.52;2.78;;;9.50;99.90;;;;;;5111324;28;20088;-73
2022/02/06 10:22:57;;;;;;;13.02;2.20;;;9.50;99.90;;;;;;5112184;28;20043;-72
2022/02/06 10:25:23;;;;;;;17.05;2.55;;;9.50;99.90;;;;;;5111769;28;20024;-72
2022/02/06 10:30:39;;;;;;;22.48;2.95;;;9.50;99.90;;;;;;5111826;28;20039;-73
2022/02/06 10:33:09;;;;;;;12.73;2.03;;;9.40;99.90;;;;;;5112167;28;20020;-73
2022/02/06 10:35:39;;;;;;;13.38;2.97;;;9.40;99.90;;;;;;5112633;28;20024;-72
2022/02/06 10:38:19;;;;;;;10.98;2.20;;;9.40;99.90;;;;;;5116217;28;20042;-72
2022/02/06 10:41:01;;;;;;;12.93;3.42;;;9.40;99.90;;;;;;5115959;28;20030;-73
2022/02/06 10:43:26;;;;;;;14.65;2.20;;;9.40;99.90;;;;;;5118788;27;20027;-73
2022/02/06 10:46:12;;;;;;;16.63;2.33;;;9.40;99.90;;;;;;5115523;28;20031;-72
2022/02/06 10:48:51;;;;;;;9.30;2.30;;;9.50;99.90;;;;;;5114953;28;20019;-72
2022/02/06 10:51:49;;;;;;;14.35;2.25;;;9.50;99.90;;;;;;5115390;28;20031;-72
2022/02/06 10:54:30;;;;;;;18.48;2.85;;;9.50;99.90;;;;;;5116935;27;20035;-73
2022/02/06 10:57:01;;;;;;;14.05;2.53;;;9.50;99.90;;;;;;5114900;28;20052;-71
2022/02/06 10:59:29;;;;;;;3.92;1.92;;;9.40;99.90;;;;;;5114479;27;20028;-73
2022/02/06 11:01:55;;;;;;;14.73;1.90;;;9.50;99.90;;;;;;5114163;28;20023;-73
2022/02/06 11:04:33;;;;;;;9.75;1.73;;;9.50;99.90;;;;;;5114990;28;20047;-72
2022/02/06 11:07:18;;;;;;;17.30;2.65;;;9.50;99.90;;;;;;5116023;28;20073;-71
2022/02/06 11:09:48;;;;;;;12.50;2.03;;;9.50;99.90;;;;;;5113405;28;20099;-73
2022/02/06 11:12:22;;;;;;;3.90;1.23;;;9.50;99.90;;;;;;5114031;27;20024;-74
2022/02/06 11:14:52;;;;;;;5.20;1.20;;;8.40;99.90;;;;;;5114566;28;20100;-73
2022/02/06 11:17:23;;;;;;;7.05;1.75;;;7.90;99.90;;;;;;5113106;28;20027;-73
2022/02/06 11:20:08;;;;;;;4.18;1.77;;;7.70;99.90;;;;;;5113783;28;20030;-74
2022/02/06 11:22:34;;;;;;;5.38;1.42;;;7.50;99.90;;;;;;5113646;27;20104;-74
2022/02/06 11:25:01;;;;;;;8.43;1.13;;;7.40;99.90;;;;;;5116828;27;20030;-73
2022/02/06 11:27:30;;;;;;;14.63;1.50;;;7.40;99.90;;;;;;5113826;28;20042;-73
2022/02/06 11:29:57;;;;;;;4.60;1.33;;;7.40;99.90;;;;;;5113097;28;20049;-73
2022/02/06 11:32:24;;;;;;;11.13;2.90;;;7.40;99.90;;;;;;5113374;28;20023;-74
2022/02/06 11:34:50;;;;;;;17.95;3.40;;;7.30;99.90;;;;;;5113402;28;20399;-74
2022/02/06 11:46:28;;;;;;;;;;;7.30;99.90;;;;;;5113959;28;20030;-73
2022/02/06 11:49:13;;;;;;;9.98;2.53;;;7.30;99.90;;;;;;5112375;28;20332;-73
2022/02/06 11:52:01;;;;;;;9.88;2.33;;;7.20;99.90;;;;;;5112949;28;20460;-72
2022/02/06 11:54:52;;;;;;;7.60;1.15;;;7.30;99.90;;;;;;5112512;27;20039;-73
2022/02/06 11:57:26;;;;;;;3.53;1.05;;;7.30;99.90;;;;;;5113003;28;20016;-73
2022/02/06 12:00:07;;;;;;;8.55;2.13;;;7.30;99.90;;;;;;5114115;28;20383;-73
2022/02/06 12:02:33;;;;;;;7.43;1.45;;;7.30;99.90;;;;;;5114220;28;20475;-73
2022/02/06 12:05:28;;;;;;;10.30;1.40;;;7.30;99.90;;;;;;5114301;28;20026;-73
2022/02/06 12:08:09;;;;;;;3.78;0.73;;;7.40;99.90;;;;;;5113475;28;20035;-73
2022/02/06 12:10:34;;;;;;;6.35;1.25;;;7.40;99.90;;;;;;5114634;28;20032;-73
2022/02/06 12:15:53;;;;;;;6.30;1.95;;;7.50;99.90;;;;;;5114159;28;20122;-74
2022/02/06 12:18:27;;;;;;;7.10;1.27;;;7.40;99.90;;;;;;5112870;28;20098;-74
2022/02/06 12:21:07;;;;;;;8.40;1.45;;;7.40;99.90;;;;;;5125203;27;20084;-73
2022/02/06 12:23:46;;;;;;;7.20;1.00;;;7.50;99.90;;;;;;5131263;27;20046;-74
2022/02/06 12:26:28;;;;;;;5.20;0.82;;;7.40;99.90;;;;;;5129935;27;20102;-74
2022/02/06 12:29:16;;;;;;;7.22;0.80;;;7.50;99.90;;;;;;5131832;27;20478;-75
2022/02/06 12:32:07;;;;;;;4.63;1.02;;;7.50;99.90;;;;;;5118706;27;20104;-75
2022/02/06 12:37:36;;;;;;;9.07;1.50;;;7.60;99.90;;;;;;5132658;27;20278;-74
2022/02/06 12:40:13;;;;;;;8.63;1.33;;;7.70;99.90;;;;;;5132230;27;20031;-74
2022/02/06 12:42:42;;;;;;;8.70;1.00;;;7.70;99.90;;;;;;5133049;27;20027;-75
2022/02/06 12:45:13;;;;;;;12.00;1.25;;;7.70;99.90;;;;;;5129643;27;20619;-75
2022/02/06 12:47:44;;;;;;;15.18;1.58;;;7.80;99.90;;;;;;5131739;27;20020;-75
2022/02/06 12:50:13;;;;;;;7.65;1.30;;;7.90;99.90;;;;;;5131646;27;20121;-75
2022/02/06 12:52:39;;;;;;;6.05;1.27;;;7.90;99.90;;;;;;5132931;27;20077;-75
2022/02/06 12:55:05;;;;;;;16.27;1.65;;;8.00;99.90;;;;;;5129655;27;20478;-75
2022/02/06 12:57:49;;;;;;;16.85;2.85;;;8.00;99.90;;;;;;5130554;27;20059;-75
2022/02/06 13:00:48;;;;;;;11.82;1.38;;;8.00;99.90;;;;;;5132882;27;20031;-75
2022/02/06 13:03:22;;;;;;;4.40;0.88;;;8.10;99.90;;;;;;5132187;27;20096;-74
2022/02/06 13:05:55;;;;;;;6.07;1.08;;;8.20;99.90;;;;;;5132497;27;20031;-74
2022/02/06 13:08:21;;;;;;;10.57;1.63;;;8.20;99.90;;;;;;5131718;27;20033;-74
2022/02/06 13:11:01;;;;;;;14.93;2.33;;;8.20;99.90;;;;;;5132768;27;20118;-76
2022/02/06 13:13:36;;;;;;;11.15;1.17;;;8.30;99.90;;;;;;5132132;27;20019;-75
2022/02/06 13:27:43;;;;;;;8.63;1.13;;;8.40;99.90;;;;;;5111072;28;20015;-76
2022/02/06 13:35:29;;;;;;;5.70;1.02;;;8.60;99.90;;;;;;5120205;27;20075;-78
2022/02/06 13:38:06;;;;;;;3.88;1.13;;;8.60;99.90;;;;;;5117957;27;20094;-76
2022/02/06 13:40:33;;;;;;;4.88;0.82;;;8.60;99.90;;;;;;5118379;27;20023;-74
2022/02/06 13:43:07;;;;;;;2.58;0.70;;;8.60;99.90;;;;;;5120050;27;20077;-74
2022/02/06 13:45:35;;;;;;;7.18;1.40;;;8.60;99.90;;;;;;5121544;27;20114;-74
2022/02/06 13:48:02;;;;;;;8.25;1.17;;;8.60;99.90;;;;;;5117211;28;20023;-74
2022/02/06 13:50:29;;;;;;;6.57;1.08;;;8.70;99.90;;;;;;5112712;28;20035;-74
2022/02/06 13:53:12;;;;;;;8.20;1.20;;;8.80;99.90;;;;;;5123053;27;20042;-73
2022/02/06 13:56:07;;;;;;;6.38;1.25;;;8.80;99.90;;;;;;5121589;27;20028;-75
2022/02/06 13:58:34;;;;;;;11.55;1.70;;;8.80;99.90;;;;;;5108758;28;20035;-74
2022/02/06 14:01:09;;;;;;;3.00;0.65;;;8.80;99.90;;;;;;5115646;27;20234;-75
2022/02/06 14:03:45;;;;;;;3.25;1.00;;;8.80;99.90;;;;;;5121133;28;20518;-75
2022/02/06 14:06:14;;;;;;;5.10;0.60;;;8.80;99.90;;;;;;5113584;28;20032;-74
2022/02/06 14:09:07;;;;;;;3.72;0.57;;;8.80;99.90;;;;;;5112525;28;20558;-75
2022/02/06 14:11:34;;;;;;;4.80;0.85;;;8.80;99.90;;;;;;5124612;27;20045;-75
2022/02/06 14:14:46;;;;;;;2.03;0.77;;;8.70;99.90;;;;;;5127797;27;20064;-75
2022/02/06 14:17:16;;;;;;;1.17;0.60;;;8.60;99.90;;;;;;5069854;28;20506;-75
2022/02/06 14:19:47;;;;;;;8.85;0.85;;;8.60;99.90;;;;;;5119542;27;20382;-75
2022/02/06 14:22:35;;;;;;;2.65;0.95;;;8.70;99.90;;;;;;5132068;27;20482;-75
2022/02/06 14:25:12;;;;;;;7.35;1.00;;;8.70;99.90;;;;;;5131525;27;20024;-74
2022/02/06 14:27:40;;;;;;;2.38;1.65;;;8.60;99.90;;;;;;5126009;27;20058;-75
2022/02/06 14:30:29;;;;;;;3.22;1.00;;;8.60;99.90;;;;;;5125989;27;20043;-75
2022/02/06 14:32:58;;;;;;;6.28;1.30;;;8.60;99.90;;;;;;5127210;27;20019;-75
2022/02/06 14:35:35;;;;;;;3.97;1.30;;;8.70;99.90;;;;;;5124924;27;20053;-74
2022/02/06 14:38:04;;;;;;;6.85;1.15;;;8.70;99.90;;;;;;5122976;27;20035;-76
2022/02/06 14:43:33;;;;;;;4.43;1.13;;;8.70;99.90;;;;;;5127637;27;20119;-76
2022/02/06 14:45:59;;;;;;;8.10;2.20;;;8.80;99.90;;;;;;5128344;27;20054;-76
2022/02/06 14:48:26;;;;;;;6.95;1.75;;;8.80;99.90;;;;;;5123444;27;20054;-75
2022/02/06 14:50:53;;;;;;;4.30;0.73;;;8.80;99.90;;;;;;5131400;27;20049;-75
2022/02/06 14:53:20;;;;;;;4.78;1.00;;;8.80;99.90;;;;;;5125586;27;20027;-75
2022/02/06 14:55:51;;;;;;;2.13;0.70;;;8.80;99.90;;;;;;5124513;27;20382;-75
2022/02/06 14:58:17;;;;;;;7.03;0.98;;;8.80;99.90;;;;;;5125132;27;20028;-75
2022/02/06 15:00:42;;;;;;;4.05;0.65;;;8.80;99.90;;;;;;5122873;27;20031;-75
2022/02/06 15:03:09;;;;;;;6.60;1.70;;;8.80;99.90;;;;;;5124022;27;20040;-75
2022/02/06 15:05:35;;;;;;;3.70;1.15;;;8.80;99.90;;;;;;5128112;27;20398;-76
2022/02/06 15:08:02;;;;;;;4.25;1.17;;;8.80;99.90;;;;;;5122771;27;20051;-75
2022/02/06 15:10:28;;;;;;;7.20;1.17;;;8.80;99.90;;;;;;5121234;27;20046;-75
2022/02/06 15:12:54;;;;;;;19.08;1.13;;;8.80;99.90;;;;;;5120721;27;20102;-75
2022/02/06 15:15:24;;;;;;;8.35;2.97;;;8.80;99.90;;;;;;5123672;27;20024;-75
2022/02/06 15:17:52;;;;;;;9.13;2.55;;;8.90;99.90;;;;;;5120118;27;20024;-75
2022/02/06 15:20:18;;;;;;;8.57;4.40;;;8.90;99.90;;;;;;5119830;27;20027;-74
2022/02/06 15:22:43;;;;;;;11.95;3.30;;;8.90;99.90;;;;;;5126132;27;20019;-74
2022/02/06 15:25:09;;;;;;;9.82;2.90;;;8.90;99.90;;;;;;5121441;27;20047;-75
2022/02/06 15:27:34;;;;;;;8.90;1.27;;;8.90;99.90;;;;;;5123599;27;20035;-75
2022/02/06 15:30:00;;;;;;;37.08;10.55;;;8.80;99.90;;;;;;5121627;27;20394;-75
2022/02/06 15:32:26;;;;;;;9.65;3.45;;;8.80;99.90;;;;;;5119572;27;20078;-74
2022/02/06 15:34:52;;;;;;;4.90;1.40;;;8.80;99.90;;;;;;5123230;27;20038;-74
2022/02/06 15:37:18;;;;;;;8.25;2.35;;;8.80;99.90;;;;;;5130284;27;20557;-73
2022/02/06 15:39:46;;;;;;;6.55;1.85;;;8.80;99.90;;;;;;5125398;27;20034;-74
2022/02/06 15:42:16;;;;;;;3.95;1.83;;;8.80;99.90;;;;;;5124666;27;20475;-75
2022/02/06 15:44:46;;;;;;;8.38;1.30;;;8.80;99.90;;;;;;5126605;27;20050;-75
2022/02/06 15:47:14;;;;;;;8.48;1.80;;;8.80;99.90;;;;;;5121881;27;20035;-74